Terminal Aerodrome Forecast
Issued by NWS

Home | Current Version | Previous Version | Text Only | Print | Product List | Glossary On
Versions: 1 2 3 4 5 6 7 8 9 10 11 12 13 14 15 16 17 18 19 20 21 22 23 24 25
000
FTUS41 KGYX 271720
TAFAUG
TAF
KAUG 271720Z 2718/2818 34012KT P6SM FEW250
     FM272100 35008KT P6SM BKN100
     FM280000 35005KT P6SM OVC250
     FM280300 36004KT P6SM OVC100
     FM280900 36005KT P6SM OVC050=

USA.gov is the U.S. government's official web portal to all federal, state and local government web resources and services.